createdAt,value
2023-05-07T00:01:27.927Z,1.60
2023-05-07T00:03:57.336Z,1.80
2023-05-07T00:06:27.002Z,1.63
2023-05-07T00:08:54.929Z,2.17
2023-05-07T00:11:22.776Z,1.77
2023-05-07T00:13:50.679Z,2.00
2023-05-07T00:16:18.678Z,1.90
2023-05-07T00:18:46.810Z,1.70
2023-05-07T00:21:16.061Z,1.60
2023-05-07T00:23:44.041Z,1.43
2023-05-07T00:26:11.884Z,2.10
2023-05-07T00:28:40.289Z,1.67
2023-05-07T00:31:08.108Z,1.80
2023-05-07T00:33:35.972Z,2.10
2023-05-07T00:36:03.895Z,2.27
2023-05-07T00:38:33.234Z,2.63
2023-05-07T00:41:01.120Z,2.80
2023-05-07T00:43:29.004Z,2.40
2023-05-07T00:45:56.949Z,2.10
2023-05-07T00:48:25.467Z,2.10
2023-05-07T00:50:53.488Z,2.20
2023-05-07T00:53:21.649Z,2.10
2023-05-07T00:55:51.118Z,1.97
2023-05-07T00:58:19.121Z,2.00
2023-05-07T01:00:47.093Z,2.00
2023-05-07T01:03:15.908Z,2.50
2023-05-07T01:05:45.964Z,2.40
2023-05-07T01:08:14.986Z,3.07
2023-05-07T01:10:44.100Z,2.70
2023-05-07T01:13:14.987Z,2.40
2023-05-07T01:15:43.034Z,2.80
2023-05-07T01:18:11.035Z,3.90
2023-05-07T01:20:38.931Z,3.20
2023-05-07T01:23:09.773Z,4.47
2023-05-07T01:25:37.769Z,4.80
2023-05-07T01:28:06.763Z,4.57
2023-05-07T01:30:36.710Z,4.20
2023-05-07T01:33:08.814Z,5.50
2023-05-07T01:35:40.594Z,4.60
2023-05-07T01:38:10.993Z,4.67
2023-05-07T01:40:39.171Z,4.83
2023-05-07T01:43:08.415Z,4.27
2023-05-07T01:45:37.145Z,4.30
2023-05-07T01:48:05.706Z,4.87
2023-05-07T01:50:34.342Z,5.17
2023-05-07T01:53:03.696Z,5.80
2023-05-07T01:55:32.930Z,5.13
2023-05-07T01:58:00.983Z,4.60
2023-05-07T02:00:29.954Z,4.83
2023-05-07T02:02:58.610Z,5.53
2023-05-07T02:05:26.712Z,5.70
2023-05-07T02:07:54.558Z,6.50
2023-05-07T02:10:22.394Z,6.30
2023-05-07T02:12:51.707Z,5.43
2023-05-07T02:15:19.817Z,6.03
2023-05-07T02:18:01.269Z,6.27
2023-05-07T02:20:29.351Z,5.67
2023-05-07T02:22:57.520Z,6.63
2023-05-07T02:25:25.610Z,6.90
2023-05-07T02:27:54.891Z,7.40
2023-05-07T02:30:23.127Z,6.93
2023-05-07T02:32:51.214Z,5.60
2023-05-07T02:35:19.399Z,6.03
2023-05-07T02:37:47.251Z,6.73
2023-05-07T02:40:15.368Z,5.27
2023-05-07T02:42:43.221Z,6.37
2023-05-07T02:45:13.078Z,6.30
2023-05-07T02:47:41.126Z,5.67
2023-05-07T02:50:09.867Z,5.17
2023-05-07T02:52:37.972Z,4.73
2023-05-07T02:55:06.732Z,5.17
2023-05-07T02:57:34.574Z,6.30
2023-05-07T03:00:12.090Z,6.27
2023-05-07T03:02:41.457Z,5.83
2023-05-07T03:05:09.777Z,6.73
2023-05-07T03:07:37.686Z,6.13
2023-05-07T03:10:06.163Z,5.73
2023-05-07T03:12:34.147Z,6.17
2023-05-07T03:15:02.017Z,6.93
2023-05-07T03:17:29.949Z,7.30
2023-05-07T03:19:59.169Z,7.33
2023-05-07T03:22:27.027Z,7.90
2023-05-07T03:24:54.875Z,7.30
2023-05-07T03:27:22.735Z,8.70
2023-05-07T03:29:50.678Z,8.87
2023-05-07T03:32:18.578Z,8.40
2023-05-07T03:34:46.430Z,7.50
2023-05-07T03:37:15.664Z,10.43
2023-05-07T03:39:43.495Z,11.33
2023-05-07T03:42:11.398Z,9.97
2023-05-07T03:44:39.252Z,10.73
2023-05-07T03:47:07.143Z,10.60
2023-05-07T03:49:35.050Z,8.50
2023-05-07T03:52:02.997Z,8.80
2023-05-07T03:54:32.625Z,9.07
2023-05-07T03:57:00.576Z,9.70
2023-05-07T03:59:28.488Z,9.83
2023-05-07T04:01:56.358Z,9.67
2023-05-07T04:04:24.426Z,8.80
2023-05-07T04:06:52.577Z,9.30
2023-05-07T04:09:20.967Z,10.00
2023-05-07T04:11:50.171Z,10.00
2023-05-07T04:14:18.056Z,9.93
2023-05-07T04:16:45.983Z,10.90
2023-05-07T04:19:13.840Z,10.77
2023-05-07T04:21:41.760Z,10.33
2023-05-07T04:24:09.744Z,10.03
2023-05-07T04:26:37.568Z,10.90
2023-05-07T04:29:06.785Z,10.03
2023-05-07T04:31:34.849Z,10.50
2023-05-07T04:34:02.748Z,10.30
2023-05-07T04:36:30.669Z,10.23
2023-05-07T04:38:58.549Z,11.00
2023-05-07T04:41:26.401Z,10.90
2023-05-07T04:43:54.281Z,10.07
2023-05-07T04:46:23.517Z,9.77
2023-05-07T04:48:51.381Z,10.13
2023-05-07T04:51:19.279Z,9.87
2023-05-07T04:53:47.152Z,10.03
2023-05-07T04:56:15.099Z,10.53
2023-05-07T04:58:42.991Z,9.93
2023-05-07T05:01:10.868Z,9.67
2023-05-07T05:03:40.508Z,9.53
2023-05-07T05:06:08.636Z,10.50
2023-05-07T05:08:36.501Z,8.70
2023-05-07T05:11:04.462Z,9.00
2023-05-07T05:13:32.389Z,8.77
2023-05-07T05:16:00.417Z,8.97
2023-05-07T05:18:28.292Z,8.07
2023-05-07T05:20:57.529Z,9.00
2023-05-07T05:23:25.453Z,8.67
2023-05-07T05:25:58.368Z,10.90
2023-05-07T05:28:26.537Z,9.60
2023-05-07T05:30:54.472Z,11.33
2023-05-07T05:33:22.343Z,9.60
2023-05-07T05:35:51.705Z,8.00
2023-05-07T05:38:21.820Z,9.53
2023-05-07T05:40:49.724Z,10.70
2023-05-07T05:43:17.613Z,10.60
2023-05-07T05:45:45.651Z,9.80
2023-05-07T05:48:13.669Z,10.80
2023-05-07T05:50:41.577Z,9.70
2023-05-07T05:53:09.497Z,9.97
2023-05-07T05:55:39.708Z,9.53
2023-05-07T05:58:07.655Z,8.97
2023-05-07T06:00:35.631Z,11.20
2023-05-07T06:03:03.680Z,11.37
2023-05-07T06:05:31.801Z,10.83
2023-05-07T06:07:59.840Z,10.10
2023-05-07T06:10:28.188Z,10.40
2023-05-07T06:12:57.515Z,10.07
2023-05-07T06:15:25.396Z,10.50
2023-05-07T06:17:53.287Z,9.20
2023-05-07T06:20:21.180Z,10.10
2023-05-07T06:22:49.005Z,10.80
2023-05-07T06:25:17.085Z,11.73
2023-05-07T06:27:45.044Z,10.07
2023-05-07T06:30:14.689Z,10.00
2023-05-07T06:32:43.147Z,10.03
2023-05-07T06:35:11.228Z,10.17
2023-05-07T06:37:39.305Z,11.23
2023-05-07T06:40:09.142Z,10.70
2023-05-07T06:42:37.870Z,10.70
2023-05-07T06:45:06.751Z,9.53
2023-05-07T06:47:36.040Z,10.37
2023-05-07T06:50:03.969Z,9.10
2023-05-07T06:52:31.839Z,8.50
2023-05-07T06:54:59.709Z,10.63
2023-05-07T06:57:27.692Z,10.37
2023-05-07T06:59:55.520Z,11.17
2023-05-07T07:02:23.545Z,10.20
2023-05-07T07:04:52.826Z,10.80
2023-05-07T07:07:20.752Z,9.50
2023-05-07T07:09:48.534Z,9.30
2023-05-07T07:12:16.425Z,10.27
2023-05-07T07:14:44.328Z,9.30
2023-05-07T07:17:12.173Z,8.70
2023-05-07T07:19:40.551Z,9.17
2023-05-07T07:22:09.756Z,9.60
2023-05-07T07:24:37.626Z,9.97
2023-05-07T07:27:05.944Z,8.53
2023-05-07T07:29:33.797Z,9.57
2023-05-07T07:32:01.847Z,9.43
2023-05-07T07:34:29.730Z,8.77
2023-05-07T07:36:57.534Z,9.00
2023-05-07T07:39:26.763Z,8.40
2023-05-07T07:41:54.847Z,9.10
2023-05-07T07:44:22.659Z,8.33
2023-05-07T07:46:50.648Z,10.40
2023-05-07T07:49:19.051Z,9.50
2023-05-07T07:51:46.969Z,8.03
2023-05-07T07:54:14.861Z,10.37
2023-05-07T07:56:44.028Z,9.50
2023-05-07T07:59:11.851Z,9.70
2023-05-07T08:01:39.767Z,9.60
2023-05-07T08:04:07.729Z,10.80
2023-05-07T08:06:35.608Z,10.10
2023-05-07T08:09:03.813Z,8.43
2023-05-07T08:11:31.668Z,9.30
2023-05-07T08:14:01.236Z,8.73
2023-05-07T08:16:30.997Z,8.50
2023-05-07T08:18:59.080Z,9.20
2023-05-07T08:21:27.194Z,8.80
2023-05-07T08:23:55.070Z,8.10
2023-05-07T08:26:22.908Z,8.53
2023-05-07T08:28:50.748Z,9.50
2023-05-07T08:31:20.018Z,9.50
2023-05-07T08:33:48.003Z,7.83
2023-05-07T08:36:15.876Z,8.23
2023-05-07T08:38:46.589Z,8.97
2023-05-07T08:41:14.522Z,8.97
2023-05-07T08:43:43.620Z,8.60
2023-05-07T08:46:12.632Z,8.00
2023-05-07T08:48:42.023Z,9.40
2023-05-07T08:51:14.391Z,8.10
2023-05-07T08:53:43.442Z,8.17
2023-05-07T08:56:11.947Z,8.10
2023-05-07T08:58:39.988Z,8.13
2023-05-07T09:01:11.453Z,7.47
2023-05-07T09:03:42.305Z,8.53
2023-05-07T09:06:10.884Z,8.37
2023-05-07T09:08:38.974Z,8.13
2023-05-07T09:11:06.941Z,9.80
2023-05-07T09:13:34.827Z,8.30
2023-05-07T09:16:12.949Z,7.87
2023-05-07T09:18:45.745Z,8.87
2023-05-07T09:21:13.765Z,8.57
2023-05-07T09:23:41.957Z,7.53
2023-05-07T09:26:12.845Z,8.43
2023-05-07T09:28:42.480Z,7.13
2023-05-07T09:31:10.704Z,7.30
2023-05-07T09:33:38.924Z,7.40
2023-05-07T09:36:09.721Z,7.60
2023-05-07T09:38:39.277Z,8.20
2023-05-07T09:41:08.557Z,7.13
2023-05-07T09:43:37.933Z,7.30
2023-05-07T09:46:09.466Z,7.73
2023-05-07T09:48:41.769Z,6.97
2023-05-07T09:51:23.597Z,7.17
2023-05-07T09:53:54.042Z,6.07
2023-05-07T09:56:22.274Z,6.10
2023-05-07T09:58:51.383Z,6.77
2023-05-07T10:01:23.171Z,7.73
2023-05-07T10:03:53.368Z,5.53
2023-05-07T10:06:23.274Z,6.37
2023-05-07T10:08:52.828Z,5.27
2023-05-07T10:11:21.510Z,6.37
2023-05-07T10:13:50.357Z,6.03
2023-05-07T10:16:19.109Z,6.20
2023-05-07T10:18:48.299Z,5.70
2023-05-07T10:21:19.159Z,5.77
2023-05-07T10:23:52.658Z,5.20
2023-05-07T10:26:24.189Z,6.03
2023-05-07T10:28:58.248Z,5.80
2023-05-07T10:31:49.702Z,4.97
2023-05-07T10:34:22.508Z,5.90
2023-05-07T10:36:51.460Z,5.50
2023-05-07T10:39:22.670Z,6.20
2023-05-07T10:41:50.973Z,6.07
2023-05-07T10:44:29.670Z,5.57
2023-05-07T10:47:11.064Z,6.40
2023-05-07T10:49:59.763Z,6.10
2023-05-07T10:52:28.004Z,5.80
2023-05-07T10:55:26.368Z,5.10
2023-05-07T10:57:54.530Z,4.87
2023-05-07T11:00:45.498Z,4.73
2023-05-07T11:03:13.666Z,5.97
2023-05-07T11:05:41.747Z,4.30
2023-05-07T11:08:10.327Z,4.70
2023-05-07T11:10:53.194Z,5.90
2023-05-07T11:13:36.556Z,6.40
2023-05-07T11:16:05.472Z,4.80
2023-05-07T11:18:49.360Z,5.70
2023-05-07T11:21:34.444Z,4.50
2023-05-07T11:24:03.088Z,4.83
2023-05-07T11:26:42.978Z,5.43
2023-05-07T11:29:13.384Z,4.80
2023-05-07T11:31:41.574Z,4.07
2023-05-07T11:34:10.826Z,4.60
2023-05-07T11:36:44.735Z,4.53
2023-05-07T11:39:26.945Z,4.83
2023-05-07T11:41:56.300Z,4.90
2023-05-07T11:44:24.299Z,3.80
2023-05-07T11:46:52.375Z,4.80
2023-05-07T11:49:20.909Z,4.30
2023-05-07T11:51:48.878Z,4.07
2023-05-07T11:54:19.795Z,4.37
2023-05-07T11:56:48.421Z,4.10
2023-05-07T11:59:21.082Z,3.90
2023-05-07T12:01:49.693Z,4.00
2023-05-07T12:04:22.484Z,3.60
2023-05-07T12:06:51.957Z,3.03
2023-05-07T12:09:19.881Z,4.00
2023-05-07T12:11:48.710Z,4.20
2023-05-07T12:14:17.768Z,4.53
2023-05-07T12:16:47.396Z,3.93
2023-05-07T12:19:16.658Z,3.20
2023-05-07T12:21:44.572Z,3.80
2023-05-07T12:24:12.503Z,4.20
2023-05-07T12:26:41.740Z,3.67
2023-05-07T12:29:09.714Z,3.83
2023-05-07T12:31:37.721Z,4.20
2023-05-07T12:34:06.999Z,3.90
2023-05-07T12:36:40.346Z,4.30
2023-05-07T12:39:09.665Z,3.50
2023-05-07T12:41:55.543Z,3.33
2023-05-07T12:44:24.787Z,3.60
2023-05-07T12:46:53.527Z,3.30
2023-05-07T12:49:25.194Z,3.30
2023-05-07T12:51:53.365Z,3.90
2023-05-07T12:54:31.350Z,3.40
2023-05-07T12:57:03.649Z,3.30
2023-05-07T12:59:35.495Z,3.20
2023-05-07T13:02:03.713Z,3.07
2023-05-07T13:04:33.193Z,3.40
2023-05-07T13:07:01.469Z,3.00
2023-05-07T13:09:30.061Z,2.77
2023-05-07T13:12:00.973Z,3.20
2023-05-07T13:14:28.910Z,3.87
2023-05-07T13:16:56.767Z,2.80
2023-05-07T13:19:24.602Z,2.80
2023-05-07T13:21:53.844Z,2.60
2023-05-07T13:24:21.789Z,3.00
2023-05-07T13:26:49.620Z,2.70
2023-05-07T13:29:17.576Z,2.67
2023-05-07T13:31:46.042Z,2.83
2023-05-07T13:34:15.148Z,2.70
2023-05-07T13:36:43.044Z,3.00
2023-05-07T13:39:12.332Z,2.10
2023-05-07T13:41:40.347Z,2.80
2023-05-07T13:44:08.289Z,3.40
2023-05-07T13:46:36.433Z,2.40
2023-05-07T13:49:04.348Z,2.70
2023-05-07T13:51:32.502Z,2.50
2023-05-07T13:54:00.640Z,2.83
2023-05-07T13:56:32.344Z,2.13
2023-05-07T13:59:01.072Z,2.40
2023-05-07T14:01:29.420Z,2.73
2023-05-07T14:03:58.723Z,1.97
2023-05-07T14:06:26.630Z,2.50
2023-05-07T14:08:54.523Z,2.10
2023-05-07T14:11:22.538Z,1.50
2023-05-07T14:13:51.830Z,2.40
2023-05-07T14:16:19.717Z,3.47
2023-05-07T14:18:47.741Z,2.70
2023-05-07T14:21:15.684Z,2.97
2023-05-07T14:23:43.665Z,3.30
2023-05-07T14:26:11.535Z,2.73
2023-05-07T14:28:40.544Z,2.40
2023-05-07T14:31:10.852Z,2.60
2023-05-07T14:33:41.057Z,2.73
2023-05-07T14:36:09.869Z,3.67
2023-05-07T14:38:37.776Z,3.10
2023-05-07T14:41:05.848Z,2.83
2023-05-07T14:43:33.730Z,3.00
2023-05-07T14:46:01.669Z,2.83
2023-05-07T14:48:30.907Z,3.33
2023-05-07T14:50:58.827Z,3.10
2023-05-07T14:53:26.732Z,3.07
2023-05-07T14:55:54.725Z,3.30
2023-05-07T14:58:22.560Z,2.77
2023-05-07T15:00:50.751Z,3.10
2023-05-07T15:03:18.955Z,2.90
2023-05-07T15:05:48.231Z,3.27
2023-05-07T15:08:16.123Z,3.03
2023-05-07T15:10:44.087Z,3.17
2023-05-07T15:13:15.791Z,2.60
2023-05-07T15:15:44.996Z,2.93
2023-05-07T15:18:13.057Z,2.60
2023-05-07T15:20:41.544Z,3.00
2023-05-07T15:23:13.129Z,2.80
2023-05-07T15:25:41.529Z,2.83
2023-05-07T15:28:09.572Z,3.37
2023-05-07T15:30:37.763Z,3.00
2023-05-07T15:33:06.488Z,2.70
2023-05-07T15:35:34.653Z,2.60
2023-05-07T15:38:03.984Z,2.90
2023-05-07T15:40:33.842Z,3.27
2023-05-07T15:43:01.751Z,2.60
2023-05-07T15:45:30.277Z,3.03
2023-05-07T15:47:58.225Z,2.77
2023-05-07T15:50:26.150Z,2.50
2023-05-07T15:52:54.056Z,3.13
2023-05-07T15:55:22.126Z,2.83
2023-05-07T15:57:52.396Z,2.27
2023-05-07T16:00:20.804Z,3.30
2023-05-07T16:02:48.880Z,2.70
2023-05-07T16:05:16.897Z,2.67
2023-05-07T16:07:45.075Z,2.23
2023-05-07T16:10:13.125Z,2.50
2023-05-07T16:12:41.124Z,2.57
2023-05-07T16:15:11.480Z,2.60
2023-05-07T16:17:39.504Z,2.63
2023-05-07T16:20:09.196Z,2.53
2023-05-07T16:22:37.748Z,2.90
2023-05-07T16:25:06.457Z,2.73
2023-05-07T16:27:34.300Z,3.50
2023-05-07T16:30:04.563Z,2.63
2023-05-07T16:32:33.821Z,2.50
2023-05-07T16:35:01.899Z,2.87
2023-05-07T16:37:30.030Z,2.93
2023-05-07T16:39:59.773Z,2.93
2023-05-07T16:42:27.656Z,3.10
2023-05-07T16:44:55.636Z,2.80
2023-05-07T16:47:23.531Z,2.50
2023-05-07T16:49:53.036Z,2.30
2023-05-07T16:52:21.247Z,2.70
2023-05-07T16:54:49.324Z,2.70
2023-05-07T16:57:17.223Z,3.13
2023-05-07T16:59:45.023Z,3.20
2023-05-07T17:02:13.275Z,3.90
2023-05-07T17:04:41.140Z,3.33
2023-05-07T17:07:10.439Z,3.90
2023-05-07T17:09:38.362Z,3.57
2023-05-07T17:12:06.731Z,3.87
2023-05-07T17:14:34.532Z,5.40
2023-05-07T17:17:02.358Z,5.13
2023-05-07T17:19:30.218Z,5.57
2023-05-07T17:21:58.300Z,5.07
2023-05-07T17:24:27.612Z,6.00
2023-05-07T17:26:55.496Z,4.97
2023-05-07T17:29:23.363Z,5.40
2023-05-07T17:31:51.278Z,5.07
2023-05-07T17:34:19.174Z,5.20
2023-05-07T17:36:47.020Z,5.43
2023-05-07T17:39:14.866Z,5.27
2023-05-07T17:41:44.109Z,5.70
2023-05-07T17:44:11.955Z,5.33
2023-05-07T17:46:39.862Z,5.47
2023-05-07T17:49:07.683Z,5.37
2023-05-07T17:51:49.794Z,6.00
2023-05-07T17:54:21.552Z,6.17
2023-05-07T17:56:50.808Z,5.53
2023-05-07T17:59:18.662Z,5.70
2023-05-07T18:01:46.541Z,5.27
2023-05-07T18:04:14.711Z,5.83
2023-05-07T18:06:42.772Z,5.67
2023-05-07T18:09:10.768Z,4.80
2023-05-07T18:11:38.638Z,4.80
2023-05-07T18:14:07.803Z,4.90
2023-05-07T18:16:35.828Z,5.43
2023-05-07T18:19:03.799Z,4.47
2023-05-07T18:21:31.690Z,5.30
2023-05-07T18:23:59.543Z,4.50
2023-05-07T18:26:27.727Z,5.07
2023-05-07T18:28:55.602Z,4.93
2023-05-07T18:31:24.862Z,4.80
2023-05-07T18:33:54.279Z,4.37
2023-05-07T18:36:22.144Z,4.57
2023-05-07T18:38:49.966Z,4.80
2023-05-07T18:41:17.842Z,4.60
2023-05-07T18:43:45.689Z,4.63
2023-05-07T18:46:15.815Z,4.10
2023-05-07T18:48:45.059Z,4.40
2023-05-07T18:51:12.890Z,4.20
2023-05-07T18:53:40.776Z,3.90
2023-05-07T18:56:08.803Z,4.10
2023-05-07T18:58:36.924Z,4.67
2023-05-07T19:01:08.123Z,4.60
2023-05-07T19:03:36.485Z,5.77
2023-05-07T19:06:06.414Z,5.23
2023-05-07T19:08:34.367Z,4.60
2023-05-07T19:11:02.878Z,4.37
2023-05-07T19:13:30.828Z,5.00
2023-05-07T19:15:58.705Z,4.73
2023-05-07T19:18:26.684Z,4.33
2023-05-07T19:20:55.314Z,4.23
2023-05-07T19:23:24.845Z,5.50
2023-05-07T19:25:52.688Z,4.60
2023-05-07T19:28:20.954Z,4.60
2023-05-07T19:30:49.847Z,4.50
2023-05-07T19:33:18.031Z,3.97
2023-05-07T19:35:46.090Z,4.13
2023-05-07T19:38:13.954Z,4.00
2023-05-07T19:40:43.170Z,4.57
2023-05-07T19:43:11.078Z,4.30
2023-05-07T19:45:42.874Z,4.53
2023-05-07T19:48:10.843Z,5.10
2023-05-07T19:50:38.696Z,4.40
2023-05-07T19:53:06.643Z,5.00
2023-05-07T19:55:34.697Z,4.13
2023-05-07T19:58:03.865Z,4.17
2023-05-07T20:00:33.417Z,4.57
2023-05-07T20:03:01.371Z,4.97
2023-05-07T20:05:29.234Z,4.50
2023-05-07T20:07:57.279Z,4.60
2023-05-07T20:10:25.123Z,4.20
2023-05-07T20:12:52.976Z,4.27
2023-05-07T20:15:23.374Z,3.63
2023-05-07T20:17:51.288Z,3.73
2023-05-07T20:20:19.302Z,4.90
2023-05-07T20:22:47.198Z,3.70
2023-05-07T20:25:15.065Z,3.90
2023-05-07T20:27:42.927Z,3.80
2023-05-07T20:30:12.001Z,4.63
2023-05-07T20:32:41.429Z,3.77
2023-05-07T20:35:09.889Z,3.90
2023-05-07T20:37:37.873Z,3.93
2023-05-07T20:40:07.119Z,3.90
2023-05-07T20:42:35.357Z,3.70
2023-05-07T20:45:04.184Z,4.00
2023-05-07T20:47:33.017Z,4.80
2023-05-07T20:50:02.221Z,3.70
2023-05-07T20:52:30.070Z,3.50
2023-05-07T20:54:57.924Z,3.60
2023-05-07T20:57:25.822Z,3.67
2023-05-07T20:59:53.683Z,3.93
2023-05-07T21:02:21.561Z,3.80
2023-05-07T21:04:51.401Z,3.97
2023-05-07T21:07:20.667Z,3.53
2023-05-07T21:09:48.577Z,4.83
2023-05-07T21:12:16.394Z,3.83
2023-05-07T21:14:44.261Z,4.20
2023-05-07T21:17:12.071Z,3.83
2023-05-07T21:19:40.351Z,4.07
2023-05-07T21:22:08.246Z,3.70
2023-05-07T21:24:37.434Z,4.10
2023-05-07T21:27:05.463Z,4.40
2023-05-07T21:29:33.333Z,4.10
2023-05-07T21:32:03.483Z,4.53
2023-05-07T21:34:31.438Z,4.17
2023-05-07T21:36:59.945Z,4.00
2023-05-07T21:39:27.801Z,4.03
2023-05-07T21:41:57.536Z,4.40
2023-05-07T21:44:25.345Z,4.43
2023-05-07T21:46:53.226Z,4.30
2023-05-07T21:49:21.089Z,4.53
2023-05-07T21:51:48.929Z,5.20
2023-05-07T21:54:16.839Z,4.47
2023-05-07T21:56:45.492Z,3.73
2023-05-07T21:59:14.745Z,4.23
2023-05-07T22:01:42.636Z,4.90
2023-05-07T22:04:11.068Z,4.60
2023-05-07T22:06:39.011Z,5.23
2023-05-07T22:09:07.839Z,4.83
2023-05-07T22:11:35.698Z,4.73
2023-05-07T22:14:03.616Z,4.80
2023-05-07T22:16:32.829Z,4.63
2023-05-07T22:19:00.736Z,4.90
2023-05-07T22:21:28.575Z,4.80
2023-05-07T22:23:56.464Z,4.90
2023-05-07T22:26:24.293Z,4.57
2023-05-07T22:28:52.113Z,5.10
2023-05-07T22:31:19.949Z,5.63
2023-05-07T22:33:49.170Z,4.73
2023-05-07T22:36:17.001Z,4.80
2023-05-07T22:38:44.828Z,4.80
2023-05-07T22:41:12.651Z,5.40
2023-05-07T22:43:40.506Z,5.77
2023-05-07T22:46:08.445Z,4.87
2023-05-07T22:48:36.290Z,4.90
2023-05-07T22:51:05.547Z,5.30
2023-05-07T22:53:33.475Z,5.57
2023-05-07T22:56:06.206Z,5.00
2023-05-07T22:58:34.168Z,5.40
2023-05-07T23:01:02.369Z,5.50
2023-05-07T23:03:30.604Z,5.80
2023-05-07T23:05:58.441Z,5.70
2023-05-07T23:08:27.620Z,6.13
2023-05-07T23:10:55.441Z,4.93
2023-05-07T23:13:23.387Z,6.30
2023-05-07T23:15:51.770Z,6.27
2023-05-07T23:18:19.822Z,5.57
2023-05-07T23:20:47.691Z,6.57
2023-05-07T23:23:15.537Z,5.33
2023-05-07T23:25:44.710Z,6.00
2023-05-07T23:28:12.518Z,6.20
2023-05-07T23:30:41.486Z,5.90
2023-05-07T23:33:09.409Z,5.53
2023-05-07T23:35:37.277Z,5.87
2023-05-07T23:38:05.104Z,7.03
2023-05-07T23:40:32.905Z,6.87
2023-05-07T23:43:02.113Z,6.50
2023-05-07T23:45:29.966Z,5.83
2023-05-07T23:47:57.878Z,6.40
2023-05-07T23:50:26.073Z,5.93
2023-05-07T23:52:53.921Z,6.73
2023-05-07T23:55:21.913Z,7.23
2023-05-07T23:57:49.794Z,6.50
